Language selection

My Weather Profile Weather Topics  | 

Juan de Fuca Strait - east entrance: Past 24 Hour Conditions

 

South Brooks - 46132

08:00 PM PDT 15 August 2022Buoy position: 49.46N 127.53W
Disclaimer

This table is a summary of hourly weather conditions for the past 24 hours.
Please note that these observations might not always be representative of weather conditions over their associated marine area.

Date / Time
(PDT)
Wind(knots) Wave height(m) Wave period(s) Pressure(kPa) Air tempC) Water tempC)
15 August 2022
20:00 ESE 6 gust 8 1.0 15.4 101.7 17 15
19:00 E 10 gust 12 1.1 15.4 101.7 17 15
18:00 E 13 gust 16 1.1 15.4 101.7 17 15
17:00 ENE 14 gust 17 1.3 15.4 101.7 17 15
16:00 E 13 gust 17 1.2 15.4 101.7 17 16
15:00 ENE 14 gust 17 1.2 9.1 101.7 17 16
14:00 ENE 14 gust 17 1.2 10.0 101.7 17 16
13:00 ENE 14 gust 18 1.2 15.4 101.7 16 15
12:00 ENE 17 gust 20 1.3 15.4 101.7 16 15
11:00 ENE 15 gust 18 1.2 15.4 101.7 16 15
10:00 ENE 14 gust 17 1.1 6.9 101.7 16 15
9:00 ENE 13 gust 16 1.1 15.4 101.7 16 15
8:00 ENE 13 gust 16 1.1 15.4 101.7 16 15
7:00 ENE 12 gust 13 1.1 15.4 101.7 16 15
6:00 ENE 10 gust 12 1.1 15.4 101.7 16 15
5:00 E 10 gust 12 1.1 7.1 101.7 16 15
4:00 E 9 gust 10 1.3 10.0 101.7 16 15
3:00 E 9 gust 10 1.3 6.7 101.8 16 15
2:00 ESE 9 gust 10 1.3 9.1 101.8 15 15
1:00 E 10 gust 12 1.1 15.4 101.8 15 15
0:00 E 11 gust 13 1.2 10.0 101.9 16 15
14 August 2022
23:00 ENE 12 gust 13 1.3 9.5 101.9 16 15
22:00 ENE 12 gust 15 1.3 9.5 101.9 16 15
21:00 ENE 13 gust 16 1.4 4.7 101.9 16 15
20:00 ENE 15 gust 17 1.4 16.7 101.9 16 15

Zoom-in to make a selection

Map of Pacific - South Coast marine weather areas South Nomad - 46036 Sentry Shoal - 46131 South Brooks - 46132 Halibut Bank - 46146 South Moresby - 46147 South Hecate Strait - 46185 West Sea Otter - 46204 La Perouse Bank - 46206 East Dellwood - 46207 Georgia Strait - 46303 English Bay - 46304 Discovery Island Esquimalt Harbour Kelp Reefs Malahat Race Rocks Lightstation Saturna Island Sheringham Point University of Victoria Victoria Gonzales Victoria Int'l Airport Ballenas Islands Campbell River Airport Comox Airport Entrance Island Fanny Island Nanaimo Airport Port Hardy Airport Sisters Islets Estevan Point Port Alberni Sartine Island Solander Island Tofino Airport Grief Point Howe Sound - Pam Rocks Powell River Airport Sechelt Squamish Airport Cape St.James Bella Bella Airport Bella Coola Airport Cathedral Point Herbert Island Point Atkinson Sand Heads Lightstation Tsawwassen Ferry Terminal Vancouver Int'l Airport Vancouver Harbour West Vancouver
Legend:
buoy Buoy
land station Land Station

Pacific - South Coast Area

Another Region

What we are doing

Features

WeatherCAN app: set custom notifications

Learn how to set custom Air Quality Health Index notifications on the WeatherCAN app

Are you prepared for summer severe weather?

We have information to help you stay safe

Date modified: